createdAt,value
2019-04-26T00:02:48.735Z,2.70
2019-04-26T00:05:52.336Z,2.72
2019-04-26T00:08:57.570Z,2.98
2019-04-26T00:12:03.297Z,2.72
2019-04-26T00:15:29.115Z,2.67
2019-04-26T00:18:33.262Z,3.02
2019-04-26T00:21:38.498Z,2.87
2019-04-26T00:24:42.343Z,2.62
2019-04-26T00:27:45.955Z,3.20
2019-04-26T00:30:49.550Z,2.90
2019-04-26T00:33:53.145Z,2.58
2019-04-26T00:36:58.401Z,3.10
2019-04-26T00:40:05.312Z,2.95
2019-04-26T00:43:09.444Z,3.00
2019-04-26T00:46:14.945Z,3.33
2019-04-26T00:49:21.198Z,3.17
2019-04-26T00:52:28.996Z,2.95
2019-04-26T00:55:34.503Z,3.58
2019-04-26T00:58:40.658Z,3.30
2019-04-26T01:01:46.219Z,3.98
2019-04-26T01:04:49.922Z,3.35
2019-04-26T01:07:55.337Z,3.30
2019-04-26T01:10:59.043Z,3.55
2019-04-26T01:14:02.899Z,3.77
2019-04-26T01:17:08.983Z,3.17
2019-04-26T01:20:13.756Z,4.03
2019-04-26T01:23:20.939Z,3.65
2019-04-26T01:26:30.608Z,4.08
2019-04-26T01:29:36.384Z,3.72
2019-04-26T01:32:43.115Z,3.45
2019-04-26T01:35:47.654Z,3.92
2019-04-26T01:38:54.120Z,3.42
2019-04-26T01:42:02.238Z,3.67
2019-04-26T01:45:24.050Z,3.55
2019-04-26T01:48:46.543Z,3.63
2019-04-26T01:51:58.805Z,4.55
2019-04-26T01:55:02.460Z,4.05
2019-04-26T01:58:07.326Z,3.42
2019-04-26T02:01:30.236Z,3.75
2019-04-26T02:04:35.686Z,3.60
2019-04-26T02:07:40.303Z,3.42
2019-04-26T02:10:43.962Z,4.05
2019-04-26T02:13:47.809Z,4.25
2019-04-26T02:16:51.632Z,4.40
2019-04-26T02:19:58.330Z,4.33
2019-04-26T02:23:03.553Z,4.25
2019-04-26T02:26:26.666Z,4.42
2019-04-26T02:29:30.672Z,4.30
2019-04-26T02:32:36.541Z,4.75
2019-04-26T02:35:40.188Z,3.90
2019-04-26T02:38:44.528Z,3.83
2019-04-26T02:41:51.200Z,4.67
2019-04-26T02:45:20.361Z,4.22
2019-04-26T02:48:34.871Z,5.05
2019-04-26T02:51:42.685Z,4.67
2019-04-26T02:55:16.582Z,4.80
2019-04-26T02:58:23.214Z,4.45
2019-04-26T03:01:31.275Z,4.50
2019-04-26T03:04:36.481Z,7.40
2019-04-26T03:07:53.584Z,5.15
2019-04-26T03:11:00.195Z,4.70
2019-04-26T03:14:07.905Z,5.97
2019-04-26T03:17:14.208Z,5.53
2019-04-26T03:20:22.547Z,5.53
2019-04-26T03:23:57.495Z,4.80
2019-04-26T03:27:09.252Z,6.03
2019-04-26T03:30:28.093Z,5.93
2019-04-26T03:33:53.986Z,5.58
2019-04-26T03:37:25.228Z,5.60
2019-04-26T03:40:55.487Z,6.03
2019-04-26T03:44:14.114Z,5.67
2019-04-26T03:47:26.957Z,5.20
2019-04-26T03:50:37.747Z,5.53
2019-04-26T03:54:09.006Z,4.80
2019-04-26T03:57:44.697Z,5.45
2019-04-26T04:00:59.525Z,4.08
2019-04-26T04:04:05.351Z,4.22
2019-04-26T04:07:11.989Z,4.00
2019-04-26T04:10:30.527Z,3.33
2019-04-26T04:13:40.740Z,3.17
2019-04-26T04:16:57.358Z,3.45
2019-04-26T04:20:20.284Z,3.30
2019-04-26T04:23:26.870Z,3.40
2019-04-26T04:26:33.465Z,2.95
2019-04-26T04:29:57.595Z,2.70
2019-04-26T04:33:06.994Z,2.75
2019-04-26T04:36:13.540Z,2.60
2019-04-26T04:39:23.029Z,2.35
2019-04-26T04:42:50.339Z,2.95
2019-04-26T04:46:23.207Z,2.52
2019-04-26T04:49:44.945Z,2.80
2019-04-26T04:52:52.145Z,2.80
2019-04-26T04:56:01.501Z,2.83
2019-04-26T04:59:14.033Z,2.98
2019-04-26T05:02:49.418Z,2.70
2019-04-26T05:06:07.524Z,3.77
2019-04-26T05:09:14.366Z,3.10
2019-04-26T05:12:21.085Z,3.00
2019-04-26T05:15:41.006Z,3.00
2019-04-26T05:19:26.014Z,2.70
2019-04-26T05:22:55.455Z,2.83
2019-04-26T05:26:27.206Z,2.52
2019-04-26T05:30:02.734Z,2.65
2019-04-26T05:33:27.503Z,2.08
2019-04-26T05:36:39.946Z,2.50
2019-04-26T05:40:04.339Z,2.58
2019-04-26T05:46:57.889Z,2.50
2019-04-26T05:50:32.621Z,2.30
2019-04-26T05:54:07.808Z,2.50
2019-04-26T05:57:25.062Z,2.85
2019-04-26T06:00:41.954Z,2.42
2019-04-26T06:04:12.451Z,2.80
2019-04-26T06:07:56.295Z,2.80
2019-04-26T06:11:04.565Z,2.37
2019-04-26T06:14:33.803Z,2.85
2019-04-26T06:18:00.163Z,2.77
2019-04-26T06:21:09.384Z,2.80
2019-04-26T06:24:27.772Z,2.75
2019-04-26T06:27:39.027Z,3.10
2019-04-26T06:30:54.453Z,3.27
2019-04-26T06:34:07.639Z,2.72
2019-04-26T06:37:18.694Z,2.98
2019-04-26T06:40:28.077Z,5.42
2019-04-26T06:43:36.552Z,2.90
2019-04-26T06:47:05.261Z,3.00
2019-04-26T06:50:19.240Z,3.45
2019-04-26T06:53:44.426Z,3.27
2019-04-26T06:57:16.824Z,3.02
2019-04-26T07:00:24.703Z,3.15
2019-04-26T07:03:40.169Z,2.90
2019-04-26T07:06:49.914Z,2.90
2019-04-26T07:10:06.280Z,2.90
2019-04-26T07:13:42.200Z,2.62
2019-04-26T07:16:53.440Z,2.47
2019-04-26T07:20:17.863Z,2.65
2019-04-26T07:23:47.038Z,3.20
2019-04-26T07:27:17.480Z,3.02
2019-04-26T07:30:35.997Z,3.00
2019-04-26T07:33:59.177Z,2.95
2019-04-26T07:37:22.100Z,3.12
2019-04-26T07:40:39.446Z,2.60
2019-04-26T07:43:50.253Z,4.00
2019-04-26T07:47:14.278Z,3.37
2019-04-26T07:50:48.563Z,2.70
2019-04-26T07:54:19.560Z,3.12
2019-04-26T07:57:51.858Z,2.60
2019-04-26T08:01:24.556Z,2.80
2019-04-26T08:07:42.697Z,2.65
2019-04-26T08:11:11.189Z,2.85
2019-04-26T08:14:17.867Z,3.10
2019-04-26T08:17:29.711Z,2.95
2019-04-26T08:20:41.058Z,2.92
2019-04-26T08:23:52.427Z,2.10
2019-04-26T08:27:08.879Z,2.65
2019-04-26T08:30:18.914Z,2.20
2019-04-26T08:33:26.039Z,2.40
2019-04-26T08:36:33.859Z,3.08
2019-04-26T08:39:45.528Z,2.10
2019-04-26T08:42:53.400Z,2.50
2019-04-26T08:46:20.203Z,2.33
2019-04-26T08:49:30.057Z,2.30
2019-04-26T08:52:37.459Z,3.37
2019-04-26T08:55:44.413Z,2.47
2019-04-26T08:58:51.117Z,2.45
2019-04-26T09:01:58.671Z,2.20
2019-04-26T09:05:22.665Z,2.02
2019-04-26T09:08:29.507Z,1.95
2019-04-26T09:11:36.075Z,2.30
2019-04-26T09:14:42.755Z,1.60
2019-04-26T09:17:46.351Z,1.82
2019-04-26T09:20:49.972Z,1.80
2019-04-26T09:24:03.995Z,2.42
2019-04-26T09:27:25.292Z,1.62
2019-04-26T09:30:34.403Z,1.62
2019-04-26T09:33:40.615Z,1.98
2019-04-26T09:36:44.389Z,2.10
2019-04-26T09:39:48.046Z,1.72
2019-04-26T09:43:02.791Z,2.00
2019-04-26T09:46:24.523Z,2.10
2019-04-26T09:49:29.832Z,1.90
2019-04-26T09:52:35.236Z,2.12
2019-04-26T09:55:38.949Z,2.05
2019-04-26T09:58:42.592Z,2.25
2019-04-26T10:01:46.332Z,1.85
2019-04-26T10:04:50.104Z,1.98
2019-04-26T10:07:53.971Z,1.85
2019-04-26T10:10:57.606Z,2.00
2019-04-26T10:14:08.674Z,2.50
2019-04-26T10:17:15.808Z,2.25
2019-04-26T10:20:19.173Z,2.20
2019-04-26T10:23:22.763Z,2.00
2019-04-26T10:26:28.045Z,2.40
2019-04-26T10:29:31.795Z,2.75
2019-04-26T10:32:35.532Z,2.42
2019-04-26T10:35:39.195Z,2.50
2019-04-26T10:38:42.771Z,2.17
2019-04-26T10:41:46.363Z,1.82
2019-04-26T10:44:49.969Z,1.90
2019-04-26T10:47:53.647Z,2.05
2019-04-26T10:50:57.300Z,1.98
2019-04-26T10:54:05.917Z,1.95
2019-04-26T10:57:22.975Z,2.08
2019-04-26T11:00:37.211Z,2.12
2019-04-26T11:03:40.830Z,2.45
2019-04-26T11:06:44.407Z,2.17
2019-04-26T11:09:47.992Z,1.80
2019-04-26T11:12:51.588Z,1.62
2019-04-26T11:15:55.309Z,1.98
2019-04-26T11:19:01.231Z,1.92
2019-04-26T11:22:05.972Z,1.77
2019-04-26T11:25:09.854Z,2.00
2019-04-26T11:28:13.560Z,2.37
2019-04-26T11:31:23.378Z,2.70
2019-04-26T11:34:32.808Z,2.40
2019-04-26T11:37:36.787Z,2.65
2019-04-26T11:40:44.471Z,2.40
2019-04-26T11:43:52.567Z,2.45
2019-04-26T11:46:54.312Z,2.72
2019-04-26T11:50:00.039Z,2.37
2019-04-26T11:53:06.277Z,2.67
2019-04-26T11:56:14.579Z,1.80
2019-04-26T11:59:18.154Z,1.98
2019-04-26T12:02:23.373Z,2.00
2019-04-26T12:05:34.434Z,2.35
2019-04-26T12:08:48.782Z,2.08
2019-04-26T12:12:04.015Z,2.33
2019-04-26T12:14:57.784Z,2.22
2019-04-26T12:18:01.410Z,2.00
2019-04-26T12:21:05.299Z,2.27
2019-04-26T12:24:08.916Z,2.62
2019-04-26T12:27:12.651Z,2.20
2019-04-26T12:30:16.848Z,3.17
2019-04-26T12:33:20.536Z,2.35
2019-04-26T12:36:24.136Z,2.15
2019-04-26T12:39:32.364Z,2.62
2019-04-26T12:42:35.038Z,2.77
2019-04-26T12:45:43.050Z,2.67
2019-04-26T12:48:49.915Z,2.60
2019-04-26T12:51:52.291Z,2.42
2019-04-26T12:54:57.743Z,2.70
2019-04-26T12:58:01.455Z,2.37
2019-04-26T13:01:07.856Z,2.65
2019-04-26T13:04:11.499Z,3.00
2019-04-26T13:07:23.799Z,3.30
2019-04-26T13:10:26.659Z,2.35
2019-04-26T13:13:31.905Z,2.87
2019-04-26T13:16:37.131Z,2.70
2019-04-26T13:19:40.720Z,3.05
2019-04-26T13:22:46.121Z,2.37
2019-04-26T13:25:49.674Z,3.25
2019-04-26T13:28:57.016Z,3.25
2019-04-26T13:31:58.672Z,3.50
2019-04-26T13:35:02.284Z,3.98
2019-04-26T13:38:08.763Z,7.70
2019-04-26T13:41:15.474Z,3.65
2019-04-26T13:44:20.714Z,4.83
2019-04-26T13:47:50.264Z,4.55
2019-04-26T13:54:46.023Z,6.12
2019-04-26T13:57:56.779Z,5.08
2019-04-26T14:01:00.774Z,5.00
2019-04-26T14:04:10.639Z,4.50
2019-04-26T14:07:14.404Z,4.80
2019-04-26T14:10:18.235Z,5.08
2019-04-26T14:13:24.974Z,4.50
2019-04-26T14:16:27.976Z,4.92
2019-04-26T14:19:32.193Z,4.25
2019-04-26T14:22:40.976Z,4.65
2019-04-26T14:25:55.498Z,5.10
2019-04-26T14:28:59.771Z,5.70
2019-04-26T14:32:05.712Z,4.92
2019-04-26T14:35:11.481Z,5.30
2019-04-26T14:38:27.076Z,5.42
2019-04-26T14:41:23.773Z,6.58
2019-04-26T14:44:31.202Z,6.05
2019-04-26T14:47:46.772Z,5.33
2019-04-26T14:50:43.093Z,5.35
2019-04-26T14:53:46.654Z,5.78
2019-04-26T14:56:55.347Z,6.30
2019-04-26T14:59:59.822Z,7.12
2019-04-26T15:03:24.096Z,7.78
2019-04-26T15:06:29.381Z,7.40
2019-04-26T15:09:36.072Z,6.95
2019-04-26T15:12:47.033Z,6.95
2019-04-26T15:15:49.748Z,7.55
2019-04-26T15:18:56.532Z,7.95
2019-04-26T15:22:04.081Z,8.48
2019-04-26T15:25:11.549Z,8.70
2019-04-26T15:28:18.041Z,8.25
2019-04-26T15:31:24.513Z,8.53
2019-04-26T15:34:28.258Z,8.88
2019-04-26T15:37:34.724Z,8.00
2019-04-26T15:40:56.378Z,9.35
2019-04-26T15:44:04.252Z,8.80
2019-04-26T15:47:24.135Z,10.28
2019-04-26T15:50:29.488Z,9.33
2019-04-26T15:53:34.589Z,9.78
2019-04-26T15:56:38.190Z,9.33
2019-04-26T15:59:43.082Z,10.10
2019-04-26T16:02:46.921Z,10.40
2019-04-26T16:05:50.514Z,9.75
2019-04-26T16:08:57.692Z,8.75
2019-04-26T16:12:15.222Z,8.50
2019-04-26T16:15:14.856Z,8.75
2019-04-26T16:18:24.299Z,7.95
2019-04-26T16:21:27.939Z,9.88
2019-04-26T16:24:34.199Z,9.60
2019-04-26T16:27:36.953Z,9.73
2019-04-26T16:30:45.180Z,9.25
2019-04-26T16:34:06.582Z,9.55
2019-04-26T16:37:09.893Z,9.48
2019-04-26T16:40:19.386Z,9.08
2019-04-26T16:43:36.980Z,8.00
2019-04-26T16:46:33.273Z,8.40
2019-04-26T16:49:41.906Z,6.60
2019-04-26T16:52:43.504Z,8.55
2019-04-26T16:55:52.158Z,7.28
2019-04-26T16:58:54.958Z,6.33
2019-04-26T17:02:01.571Z,6.25
2019-04-26T17:05:16.794Z,6.25
2019-04-26T17:08:19.004Z,5.75
2019-04-26T17:11:18.900Z,6.33
2019-04-26T17:14:24.548Z,5.83
2019-04-26T17:17:27.869Z,6.15
2019-04-26T17:20:49.936Z,6.17
2019-04-26T17:23:55.191Z,5.42
2019-04-26T17:27:27.349Z,5.58
2019-04-26T17:34:09.002Z,5.95
2019-04-26T17:37:17.021Z,5.25
2019-04-26T17:40:17.985Z,5.00
2019-04-26T17:43:21.756Z,4.90
2019-04-26T17:46:25.282Z,4.12
2019-04-26T17:49:39.060Z,4.40
2019-04-26T17:52:40.906Z,3.33
2019-04-26T17:55:52.998Z,3.77
2019-04-26T17:58:55.046Z,2.47
2019-04-26T18:02:01.108Z,1.85
2019-04-26T18:08:41.148Z,2.10
2019-04-26T18:11:41.152Z,2.15
2019-04-26T18:14:46.403Z,2.08
2019-04-26T18:35:58.899Z,5.17
2019-04-26T18:39:13.675Z,7.40
2019-04-26T18:42:43.449Z,9.43
2019-04-26T18:46:53.470Z,6.78
2019-04-26T18:48:57.695Z,8.35
2019-04-26T18:52:05.527Z,6.83
2019-04-26T18:55:21.575Z,7.92
2019-04-26T18:58:30.252Z,7.42
2019-04-26T19:01:41.951Z,7.75
2019-04-26T19:04:47.975Z,6.55
2019-04-26T19:07:51.673Z,6.47
2019-04-26T19:11:00.718Z,7.87
2019-04-26T19:14:06.409Z,6.08
2019-04-26T19:17:12.075Z,6.55
2019-04-26T19:20:24.690Z,6.28
2019-04-26T19:23:29.893Z,6.65
2019-04-26T19:26:35.296Z,4.50
2019-04-26T19:29:43.257Z,5.10
2019-04-26T19:32:45.648Z,3.27
2019-04-26T19:35:49.300Z,3.37
2019-04-26T19:38:56.255Z,3.02
2019-04-26T19:42:02.652Z,3.33
2019-04-26T19:45:19.574Z,2.98
2019-04-26T19:48:20.492Z,2.80
2019-04-26T19:51:39.605Z,2.20
2019-04-26T19:54:50.527Z,2.58
2019-04-26T19:58:04.302Z,2.40
2019-04-26T20:01:09.754Z,5.10
2019-04-26T20:04:14.833Z,2.20
2019-04-26T20:07:18.359Z,2.33
2019-04-26T20:10:23.269Z,2.45
2019-04-26T20:13:31.569Z,3.17
2019-04-26T20:16:36.443Z,3.55
2019-04-26T20:19:42.623Z,3.70
2019-04-26T20:22:52.189Z,3.05
2019-04-26T20:26:06.530Z,6.85
2019-04-26T20:29:11.453Z,5.83
2019-04-26T20:32:29.230Z,3.47
2019-04-26T20:35:32.850Z,3.70
2019-04-26T20:38:43.616Z,4.05
2019-04-26T20:41:42.388Z,4.25
2019-04-26T20:44:50.982Z,4.30
2019-04-26T20:47:55.495Z,5.05
2019-04-26T20:50:57.086Z,5.85
2019-04-26T20:54:02.372Z,5.50
2019-04-26T20:57:06.148Z,18.87
2019-04-26T21:00:12.649Z,5.50
2019-04-26T21:03:23.657Z,5.53
2019-04-26T21:06:22.608Z,5.67
2019-04-26T21:09:26.827Z,5.25
2019-04-26T21:12:31.410Z,6.03
2019-04-26T21:15:36.083Z,5.83
2019-04-26T21:18:43.472Z,6.03
2019-04-26T21:21:48.342Z,10.80
2019-04-26T21:25:04.720Z,8.00
2019-04-26T21:28:12.724Z,10.13
2019-04-26T21:31:24.083Z,11.48
2019-04-26T21:34:29.276Z,14.40
2019-04-26T21:37:37.230Z,12.45
2019-04-26T21:40:43.753Z,13.00
2019-04-26T21:43:47.383Z,11.22
2019-04-26T21:46:58.511Z,12.60
2019-04-26T21:50:00.732Z,11.10
2019-04-26T21:53:07.029Z,8.00
2019-04-26T21:56:11.579Z,7.55
2019-04-26T21:59:15.877Z,7.80
2019-04-26T22:02:20.147Z,6.45
2019-04-26T22:05:24.018Z,5.80
2019-04-26T22:08:30.407Z,5.50
2019-04-26T22:11:34.103Z,5.67
2019-04-26T22:14:39.373Z,6.10
2019-04-26T22:18:01.188Z,6.17
2019-04-26T22:21:12.803Z,6.10
2019-04-26T22:24:23.345Z,7.37
2019-04-26T22:27:26.917Z,7.08
2019-04-26T22:30:30.566Z,7.05
2019-04-26T22:33:34.291Z,7.15
2019-04-26T22:36:38.678Z,7.65
2019-04-26T22:39:47.627Z,10.05
2019-04-26T22:42:54.409Z,8.68
2019-04-26T22:46:02.922Z,9.60
2019-04-26T22:49:06.626Z,11.53
2019-04-26T22:52:11.985Z,12.93
2019-04-26T22:55:29.199Z,13.18
2019-04-26T22:58:25.545Z,14.40
2019-04-26T23:01:35.007Z,12.30
2019-04-26T23:04:40.562Z,12.40
2019-04-26T23:07:47.245Z,11.70
2019-04-26T23:10:53.127Z,10.38
2019-04-26T23:14:03.312Z,11.03
2019-04-26T23:17:14.154Z,11.12
2019-04-26T23:20:19.395Z,10.40
2019-04-26T23:23:24.739Z,9.78
2019-04-26T23:26:28.374Z,9.43
2019-04-26T23:29:33.666Z,9.45
2019-04-26T23:32:38.862Z,8.35
2019-04-26T23:35:45.787Z,9.40
2019-04-26T23:38:47.833Z,8.75
2019-04-26T23:41:51.380Z,8.63
2019-04-26T23:44:55.006Z,8.60
2019-04-26T23:47:58.538Z,9.40
2019-04-26T23:51:05.045Z,8.65
2019-04-26T23:54:07.362Z,7.60
2019-04-26T23:57:10.909Z,8.58
